ENHV/HVG METAR and TAF weather

Enter ICAO airport designator
Station Type Date Time Source
ENHV METAR 2019/09/20 09:50 UTC NOAA

ENHV 200950Z 31010KT 9999 -RA SCT016 BKN024 05/02 Q1008


Station Type Date Time Source
ENHV Decoded METAR 2019/09/20 09:50 UTC NOAA

Honningsvag / Valan, Norway (ENHV) 71-01N 025-59E 14M
Sep 20, 2019 - 05:50 AM EDT / 2019.09.20 0950 UTC
Wind: from the NW (310 degrees) at 12 MPH (10 KT):0
Visibility: greater than 7 mile(s):0
Sky conditions: mostly cloudy
Weather: light rain
Temperature: 41 F (5 C)
Dew Point: 35 F (2 C)
Relative Humidity: 80%
Pressure (altimeter): 29.77 in. Hg (1008 hPa)
ob: ENHV 200950Z 31010KT 9999 -RA SCT016 BKN024 05/02 Q1008
cycle: 10

Station Type Date Time Source
ENHV TAF UTC NOAA

Error!

Example: see airport list